createdAt,value
2023-05-16T00:11:12.208Z,8.90
2023-05-16T00:13:42.481Z,9.07
2023-05-16T00:16:10.068Z,9.07
2023-05-16T00:18:37.819Z,9.50
2023-05-16T00:21:05.019Z,9.27
2023-05-16T00:23:32.371Z,9.73
2023-05-16T00:25:59.350Z,10.07
2023-05-16T00:28:26.351Z,9.43
2023-05-16T00:30:53.403Z,9.43
2023-05-16T00:33:20.450Z,9.10
2023-05-16T00:35:47.499Z,9.10
2023-05-16T00:38:14.438Z,9.17
2023-05-16T00:40:41.403Z,10.47
2023-05-16T00:43:10.149Z,9.60
2023-05-16T00:45:37.168Z,9.83
2023-05-16T00:48:04.783Z,9.90
2023-05-16T00:50:34.540Z,9.60
2023-05-16T00:53:01.531Z,9.97
2023-05-16T00:55:28.622Z,9.53
2023-05-16T00:57:58.120Z,9.60
2023-05-16T01:00:25.890Z,9.60
2023-05-16T01:02:53.932Z,9.83
2023-05-16T01:05:21.313Z,9.70
2023-05-16T01:07:48.353Z,9.97
2023-05-16T01:10:16.080Z,10.60
2023-05-16T01:13:01.848Z,10.00
2023-05-16T01:15:32.829Z,10.40
2023-05-16T01:18:11.420Z,10.13
2023-05-16T01:21:00.516Z,9.30
2023-05-16T01:23:51.759Z,9.70
2023-05-16T01:26:27.110Z,9.80
2023-05-16T01:28:55.474Z,9.83
2023-05-16T01:31:23.406Z,9.53
2023-05-16T01:33:51.972Z,10.33
2023-05-16T01:36:33.163Z,10.43
2023-05-16T01:39:53.095Z,11.37
2023-05-16T01:42:24.743Z,10.80
2023-05-16T01:45:07.135Z,10.83
2023-05-16T01:47:40.007Z,10.13
2023-05-16T01:50:17.849Z,10.13
2023-05-16T01:52:58.980Z,9.70
2023-05-16T01:55:45.946Z,10.20
2023-05-16T01:58:15.113Z,9.83
2023-05-16T02:00:43.488Z,9.93
2023-05-16T02:03:10.835Z,9.90
2023-05-16T02:05:38.494Z,9.60
2023-05-16T02:08:05.992Z,9.57
2023-05-16T02:10:33.053Z,9.87
2023-05-16T02:13:00.709Z,9.60
2023-05-16T02:15:27.951Z,10.17
2023-05-16T02:17:55.885Z,9.63
2023-05-16T02:20:23.069Z,10.13
2023-05-16T02:22:50.185Z,9.50
2023-05-16T02:25:17.339Z,9.30
2023-05-16T02:27:44.268Z,9.23
2023-05-16T02:30:12.293Z,8.80
2023-05-16T02:32:40.684Z,8.70
2023-05-16T02:35:08.904Z,8.80
2023-05-16T02:37:35.914Z,8.50
2023-05-16T02:40:05.850Z,9.43
2023-05-16T02:42:33.068Z,8.97
2023-05-16T02:45:00.184Z,10.00
2023-05-16T02:47:27.452Z,9.13
2023-05-16T02:49:54.458Z,10.20
2023-05-16T02:52:21.615Z,11.37
2023-05-16T02:54:59.856Z,9.93
2023-05-16T02:57:35.570Z,10.70
2023-05-16T03:00:02.510Z,11.33
2023-05-16T03:02:31.726Z,9.93
2023-05-16T03:04:58.851Z,10.00
2023-05-16T03:07:25.755Z,10.27
2023-05-16T03:09:52.623Z,10.80
2023-05-16T03:12:19.546Z,9.93
2023-05-16T03:14:46.518Z,9.63
2023-05-16T03:17:13.483Z,10.40
2023-05-16T03:19:40.377Z,10.17
2023-05-16T03:22:08.485Z,10.33
2023-05-16T03:24:35.508Z,11.03
2023-05-16T03:27:03.786Z,11.47
2023-05-16T03:29:31.236Z,9.77
2023-05-16T03:31:58.160Z,9.83
2023-05-16T03:34:25.150Z,10.23
2023-05-16T03:36:52.578Z,10.90
2023-05-16T03:39:19.958Z,10.93
2023-05-16T03:41:47.201Z,12.07
2023-05-16T03:44:14.117Z,11.33
2023-05-16T03:46:41.319Z,11.20
2023-05-16T03:49:08.255Z,12.73
2023-05-16T03:51:35.301Z,12.40
2023-05-16T03:54:02.332Z,11.23
2023-05-16T03:56:29.225Z,12.87
2023-05-16T03:58:56.122Z,13.33
2023-05-16T04:01:23.015Z,11.67
2023-05-16T04:03:51.115Z,12.53
2023-05-16T04:06:18.338Z,13.17
2023-05-16T04:08:45.697Z,13.20
2023-05-16T04:11:13.050Z,13.40
2023-05-16T04:13:40.195Z,12.70
2023-05-16T04:16:07.675Z,12.87
2023-05-16T04:18:34.885Z,12.90
2023-05-16T04:21:01.958Z,12.70
2023-05-16T04:23:29.079Z,11.53
2023-05-16T04:25:57.029Z,11.77
2023-05-16T04:28:23.955Z,12.83
2023-05-16T04:30:51.379Z,13.43
2023-05-16T04:33:18.858Z,13.33
2023-05-16T04:35:45.800Z,12.37
2023-05-16T04:38:12.705Z,13.87
2023-05-16T04:40:41.752Z,13.23
2023-05-16T04:43:08.702Z,12.90
2023-05-16T04:45:37.571Z,13.07
2023-05-16T04:48:05.120Z,13.00
2023-05-16T04:50:32.467Z,13.23
2023-05-16T04:52:59.702Z,12.90
2023-05-16T04:55:26.959Z,13.37
2023-05-16T04:57:54.160Z,13.67
2023-05-16T05:00:21.417Z,13.27
2023-05-16T05:02:48.715Z,15.07
2023-05-16T05:05:15.866Z,15.13
2023-05-16T05:07:43.244Z,13.03
2023-05-16T05:10:10.989Z,12.37
2023-05-16T05:12:38.116Z,11.87
2023-05-16T05:15:06.315Z,12.80
2023-05-16T05:17:33.991Z,13.00
2023-05-16T05:20:02.818Z,13.17
2023-05-16T05:22:31.050Z,12.53
2023-05-16T05:24:58.074Z,11.73
2023-05-16T05:27:25.494Z,12.50
2023-05-16T05:29:52.434Z,13.57
2023-05-16T05:32:19.443Z,13.43
2023-05-16T05:34:46.477Z,13.80
2023-05-16T05:37:14.596Z,12.50
2023-05-16T05:39:41.620Z,12.40
2023-05-16T05:42:08.548Z,12.30
2023-05-16T05:44:37.968Z,12.53
2023-05-16T05:47:06.768Z,11.87
2023-05-16T05:49:34.391Z,12.37
2023-05-16T05:52:01.512Z,13.03
2023-05-16T05:54:29.048Z,11.33
2023-05-16T05:56:58.208Z,12.00
2023-05-16T05:59:25.416Z,11.70
2023-05-16T06:01:53.039Z,11.73
2023-05-16T06:04:21.085Z,12.30
2023-05-16T06:06:48.410Z,12.10
2023-05-16T06:09:15.555Z,12.00
2023-05-16T06:11:45.613Z,11.73
2023-05-16T06:14:12.613Z,10.80
2023-05-16T06:16:40.529Z,10.77
2023-05-16T06:19:08.307Z,12.03
2023-05-16T06:21:35.392Z,10.90
2023-05-16T06:24:02.497Z,10.57
2023-05-16T06:26:29.424Z,9.63
2023-05-16T06:28:56.378Z,10.33
2023-05-16T06:31:23.389Z,10.17
2023-05-16T06:33:50.497Z,8.23
2023-05-16T06:36:17.521Z,9.23
2023-05-16T06:38:44.722Z,9.37
2023-05-16T06:41:11.806Z,9.63
2023-05-16T06:43:40.370Z,8.63
2023-05-16T06:46:07.464Z,9.10
2023-05-16T06:48:34.570Z,10.77
2023-05-16T06:51:01.624Z,9.13
2023-05-16T06:53:29.607Z,7.73
2023-05-16T06:55:56.799Z,8.30
2023-05-16T06:58:23.769Z,9.03
2023-05-16T07:00:51.076Z,8.50
2023-05-16T07:03:19.176Z,10.27
2023-05-16T07:05:46.469Z,7.77
2023-05-16T07:08:13.600Z,8.83
2023-05-16T07:10:40.620Z,8.67
2023-05-16T07:13:07.781Z,9.00
2023-05-16T07:15:34.872Z,7.43
2023-05-16T07:18:02.115Z,9.63
2023-05-16T07:20:29.208Z,9.13
2023-05-16T07:22:57.782Z,9.30
2023-05-16T07:25:26.267Z,8.57
2023-05-16T07:27:53.627Z,8.37
2023-05-16T07:30:21.520Z,8.63
2023-05-16T07:32:49.526Z,9.53
2023-05-16T07:35:17.054Z,9.33
2023-05-16T07:37:44.174Z,8.63
2023-05-16T07:40:11.866Z,8.83
2023-05-16T07:42:38.865Z,9.10
2023-05-16T07:45:07.400Z,9.70
2023-05-16T07:47:34.875Z,8.83
2023-05-16T07:50:02.157Z,8.93
2023-05-16T07:52:32.140Z,12.47
2023-05-16T07:54:59.253Z,10.97
2023-05-16T07:57:26.305Z,10.73
2023-05-16T07:59:53.601Z,9.50
2023-05-16T08:02:21.048Z,9.27
2023-05-16T08:04:49.122Z,9.30
2023-05-16T08:07:16.190Z,9.90
2023-05-16T08:09:43.326Z,10.37
2023-05-16T08:12:10.732Z,10.67
2023-05-16T08:14:37.865Z,9.50
2023-05-16T08:17:05.191Z,9.63
2023-05-16T08:19:33.131Z,10.13
2023-05-16T08:32:03.288Z,8.47
2023-05-16T09:01:24.700Z,9.37
2023-05-16T09:03:52.800Z,8.23
2023-05-16T09:06:20.254Z,8.17
2023-05-16T09:08:47.393Z,8.73
2023-05-16T09:11:14.399Z,10.10
2023-05-16T09:13:41.528Z,10.47
2023-05-16T09:16:13.848Z,9.67
2023-05-16T09:18:43.472Z,9.33
2023-05-16T09:21:11.621Z,9.70
2023-05-16T09:23:38.672Z,8.97
2023-05-16T09:26:08.205Z,9.83
2023-05-16T09:28:38.474Z,8.73
2023-05-16T09:31:26.995Z,10.77
2023-05-16T09:33:56.781Z,8.50
2023-05-16T09:36:23.823Z,7.63
2023-05-16T09:38:51.791Z,8.00
2023-05-16T09:41:19.002Z,7.90
2023-05-16T09:43:46.716Z,6.40
2023-05-16T09:46:14.919Z,7.23
2023-05-16T09:48:45.319Z,8.07
2023-05-16T09:51:13.148Z,6.50
2023-05-16T09:53:41.873Z,6.53
2023-05-16T09:56:12.350Z,6.87
2023-05-16T09:58:42.072Z,6.70
2023-05-16T10:01:10.689Z,7.33
2023-05-16T10:03:40.509Z,6.10
2023-05-16T10:06:09.235Z,6.50
2023-05-16T10:08:37.260Z,6.23
2023-05-16T10:11:06.018Z,6.43
2023-05-16T10:13:35.326Z,6.70
2023-05-16T10:16:08.471Z,6.20
2023-05-16T10:18:38.358Z,5.97
2023-05-16T10:21:11.049Z,7.07
2023-05-16T10:23:42.544Z,5.60
2023-05-16T10:26:11.576Z,5.40
2023-05-16T10:28:40.585Z,5.40
2023-05-16T10:31:10.252Z,5.20
2023-05-16T10:33:37.734Z,4.97
2023-05-16T10:36:05.779Z,5.60
2023-05-16T10:38:34.891Z,4.87
2023-05-16T10:41:02.384Z,5.43
2023-05-16T10:43:31.017Z,4.80
2023-05-16T10:46:11.616Z,5.67
2023-05-16T10:48:41.326Z,5.17
2023-05-16T10:51:23.745Z,4.70
2023-05-16T10:53:55.290Z,4.37
2023-05-16T10:56:24.133Z,4.60
2023-05-16T10:58:53.992Z,4.70
2023-05-16T11:01:25.501Z,4.70
2023-05-16T11:03:58.594Z,4.20
2023-05-16T11:06:47.263Z,4.30
2023-05-16T11:09:14.245Z,5.20
2023-05-16T11:11:44.314Z,5.13
2023-05-16T11:14:35.024Z,5.30
2023-05-16T11:17:25.162Z,4.70
2023-05-16T13:30:08.820Z,5.20
2023-05-16T13:32:38.325Z,4.80
2023-05-16T13:35:06.294Z,4.40
2023-05-16T13:37:33.536Z,4.90
2023-05-16T13:40:00.800Z,5.47
2023-05-16T13:42:43.839Z,3.90
2023-05-16T13:45:10.900Z,4.17
2023-05-16T13:47:37.999Z,5.10
2023-05-16T13:50:09.375Z,4.57
2023-05-16T13:52:40.349Z,4.57
2023-05-16T13:55:08.267Z,4.33
2023-05-16T13:57:35.997Z,4.03
2023-05-16T14:00:35.427Z,5.00
2023-05-16T14:02:59.408Z,4.53
2023-05-16T14:05:26.566Z,3.77
2023-05-16T14:07:53.577Z,4.77
2023-05-16T14:10:20.664Z,3.90
2023-05-16T14:12:49.093Z,4.23
2023-05-16T14:15:16.213Z,4.20
2023-05-16T14:17:43.252Z,4.13
2023-05-16T14:20:10.913Z,4.17
2023-05-16T14:22:38.448Z,4.33
2023-05-16T14:25:06.381Z,4.27
2023-05-16T14:27:33.500Z,4.57
2023-05-16T14:30:01.273Z,3.90
2023-05-16T14:32:32.355Z,3.70
2023-05-16T14:34:59.589Z,4.50
2023-05-16T14:37:27.801Z,4.37
2023-05-16T14:39:57.940Z,4.70
2023-05-16T14:42:28.243Z,4.90
2023-05-16T14:44:55.214Z,4.63
2023-05-16T14:47:22.564Z,4.43
2023-05-16T14:49:49.730Z,4.50
2023-05-16T14:52:16.671Z,4.20
2023-05-16T14:54:43.665Z,4.37
2023-05-16T14:57:10.732Z,5.63
2023-05-16T14:59:37.806Z,5.23
2023-05-16T15:02:05.483Z,4.10
2023-05-16T15:04:33.014Z,5.67
2023-05-16T15:07:00.083Z,4.27
2023-05-16T15:09:27.031Z,3.50
2023-05-16T15:11:54.019Z,3.83
2023-05-16T15:14:20.973Z,3.13
2023-05-16T15:16:48.995Z,3.40
2023-05-16T15:19:16.049Z,4.03
2023-05-16T15:21:43.080Z,3.80
2023-05-16T15:24:10.144Z,5.57
2023-05-16T15:26:39.270Z,3.37
2023-05-16T15:29:06.461Z,3.13
2023-05-16T15:31:33.736Z,3.50
2023-05-16T15:34:00.956Z,3.50
2023-05-16T15:36:28.043Z,3.40
2023-05-16T15:38:55.098Z,3.37
2023-05-16T15:41:37.091Z,3.13
2023-05-16T15:44:09.227Z,3.30
2023-05-16T15:46:36.232Z,3.37
2023-05-16T15:49:03.275Z,3.83
2023-05-16T15:51:31.169Z,3.27
2023-05-16T15:53:58.072Z,3.40
2023-05-16T15:56:25.037Z,4.07
2023-05-16T15:58:52.062Z,3.80
2023-05-16T16:01:19.255Z,3.60
2023-05-16T16:03:46.621Z,3.20
2023-05-16T16:06:13.920Z,3.40
2023-05-16T16:08:41.098Z,3.60
2023-05-16T16:11:08.054Z,2.97
2023-05-16T16:13:35.186Z,3.47
2023-05-16T16:16:02.267Z,3.73
2023-05-16T16:18:29.529Z,3.40
2023-05-16T16:20:56.506Z,4.33
2023-05-16T16:23:23.448Z,4.50
2023-05-16T16:25:50.397Z,5.23
2023-05-16T16:28:17.415Z,3.77
2023-05-16T16:30:46.725Z,4.27
2023-05-16T16:33:13.801Z,3.50
2023-05-16T16:35:40.947Z,2.90
2023-05-16T16:38:08.029Z,3.27
2023-05-16T16:40:35.425Z,3.60
2023-05-16T16:43:02.439Z,3.23
2023-05-16T16:45:29.892Z,4.00
2023-05-16T16:47:57.989Z,3.10
2023-05-16T16:50:25.185Z,3.33
2023-05-16T16:52:53.774Z,3.57
2023-05-16T16:55:21.215Z,3.30
2023-05-16T16:57:48.531Z,3.23
2023-05-16T17:00:16.420Z,3.27
2023-05-16T17:02:43.647Z,3.40
2023-05-16T17:05:11.116Z,3.70
2023-05-16T17:07:38.539Z,2.90
2023-05-16T17:10:07.957Z,3.10
2023-05-16T17:12:35.164Z,3.47
2023-05-16T17:15:02.376Z,4.23
2023-05-16T17:17:32.670Z,3.90
2023-05-16T17:19:59.745Z,3.60
2023-05-16T17:22:26.788Z,3.50
2023-05-16T17:24:53.926Z,3.40
2023-05-16T17:27:20.830Z,3.40
2023-05-16T17:29:47.866Z,3.50
2023-05-16T17:32:15.104Z,3.63
2023-05-16T17:34:44.602Z,2.63
2023-05-16T17:37:14.551Z,4.23
2023-05-16T17:39:41.556Z,3.50
2023-05-16T17:42:09.453Z,3.10
2023-05-16T17:44:36.794Z,3.30
2023-05-16T17:47:04.147Z,3.90
2023-05-16T17:49:31.192Z,4.10
2023-05-16T17:51:58.401Z,4.80
2023-05-16T17:54:27.271Z,4.33
2023-05-16T17:56:54.810Z,3.57
2023-05-16T17:59:22.050Z,4.40
2023-05-16T18:01:49.088Z,3.20
2023-05-16T18:04:18.210Z,3.20
2023-05-16T18:06:46.315Z,4.20
2023-05-16T18:09:15.041Z,3.73
2023-05-16T18:11:42.666Z,3.23
2023-05-16T18:14:09.973Z,2.93
2023-05-16T18:16:36.962Z,3.37
2023-05-16T18:19:06.454Z,2.80
2023-05-16T18:21:33.900Z,3.30
2023-05-16T18:24:00.972Z,3.60
2023-05-16T18:26:28.922Z,3.17
2023-05-16T18:28:56.213Z,2.83
2023-05-16T18:31:23.208Z,2.37
2023-05-16T18:33:50.338Z,2.40
2023-05-16T18:36:17.286Z,2.57
2023-05-16T18:38:44.329Z,2.83
2023-05-16T18:41:11.392Z,2.90
2023-05-16T18:43:38.508Z,3.23
2023-05-16T18:46:05.908Z,2.70
2023-05-16T18:48:34.666Z,3.10
2023-05-16T18:51:03.580Z,2.80
2023-05-16T18:53:31.006Z,2.70
2023-05-16T18:55:58.632Z,2.90
2023-05-16T18:58:25.789Z,3.10
2023-05-16T19:00:53.170Z,3.20
2023-05-16T19:03:20.544Z,3.17
2023-05-16T19:05:47.886Z,2.87
2023-05-16T19:08:15.057Z,3.80
2023-05-16T19:10:42.093Z,3.30
2023-05-16T19:13:09.138Z,2.77
2023-05-16T19:15:36.867Z,3.77
2023-05-16T19:18:07.213Z,3.10
2023-05-16T19:20:35.649Z,4.83
2023-05-16T19:23:03.521Z,3.53
2023-05-16T19:25:30.769Z,3.27
2023-05-16T19:27:57.929Z,4.17
2023-05-16T19:30:25.290Z,2.83
2023-05-16T19:32:52.480Z,2.60
2023-05-16T19:35:19.712Z,2.93
2023-05-16T19:37:46.810Z,2.40
2023-05-16T19:40:15.605Z,2.97
2023-05-16T19:42:44.067Z,2.27
2023-05-16T19:45:11.384Z,2.67
2023-05-16T19:47:38.572Z,3.07
2023-05-16T19:50:06.976Z,3.03
2023-05-16T19:52:34.781Z,3.30
2023-05-16T19:55:02.254Z,3.00
2023-05-16T19:57:31.720Z,2.73
2023-05-16T19:59:58.773Z,2.77
2023-05-16T20:02:26.217Z,2.40
2023-05-16T20:04:53.963Z,2.47
2023-05-16T20:07:21.188Z,4.10
2023-05-16T20:09:48.211Z,3.00
2023-05-16T20:12:15.855Z,2.90
2023-05-16T20:14:43.167Z,2.60
2023-05-16T20:17:10.224Z,2.80
2023-05-16T20:19:37.647Z,1.67
2023-05-16T20:22:04.871Z,2.10
2023-05-16T20:24:31.835Z,1.80
2023-05-16T20:26:59.145Z,2.70
2023-05-16T20:29:26.452Z,2.43
2023-05-16T20:31:53.372Z,1.83
2023-05-16T20:34:20.403Z,1.67
2023-05-16T20:36:47.411Z,1.73
2023-05-16T20:39:14.359Z,1.93
2023-05-16T20:41:41.362Z,2.53
2023-05-16T20:44:09.132Z,2.47
2023-05-16T20:46:36.963Z,1.83
2023-05-16T20:49:04.068Z,1.80
2023-05-16T20:51:31.109Z,1.80
2023-05-16T20:53:58.154Z,2.10
2023-05-16T20:56:25.070Z,1.70
2023-05-16T20:58:52.022Z,1.40
2023-05-16T21:01:19.054Z,1.70
2023-05-16T21:03:46.099Z,2.30
2023-05-16T21:06:13.248Z,1.60
2023-05-16T21:08:40.508Z,1.80
2023-05-16T21:11:07.518Z,1.43
2023-05-16T21:13:34.504Z,1.70
2023-05-16T21:16:01.638Z,1.63
2023-05-16T21:18:28.697Z,2.27
2023-05-16T21:20:55.690Z,2.13
2023-05-16T21:23:22.641Z,2.27
2023-05-16T21:25:49.569Z,1.90
2023-05-16T21:28:16.621Z,1.77
2023-05-16T21:30:43.654Z,1.80
2023-05-16T21:33:10.719Z,1.80
2023-05-16T21:35:37.745Z,2.30
2023-05-16T21:38:04.752Z,1.83
2023-05-16T21:40:31.879Z,2.17
2023-05-16T21:42:58.897Z,2.83
2023-05-16T21:45:26.386Z,2.57
2023-05-16T21:47:53.719Z,2.47
2023-05-16T21:50:20.879Z,2.13
2023-05-16T21:52:47.957Z,2.57
2023-05-16T21:55:15.154Z,1.97
2023-05-16T21:57:42.284Z,3.10
